createdAt,value
2023-01-17T00:00:33.167Z,0.50
2023-01-17T00:02:59.641Z,0.60
2023-01-17T00:05:44.645Z,0.55
2023-01-17T00:08:32.601Z,0.60
2023-01-17T00:10:59.128Z,1.05
2023-01-17T00:13:25.584Z,0.55
2023-01-17T00:15:52.140Z,0.52
2023-01-17T00:18:18.646Z,0.80
2023-01-17T00:21:03.781Z,0.63
2023-01-17T00:23:48.537Z,0.70
2023-01-17T00:26:18.279Z,0.98
2023-01-17T00:28:46.071Z,0.70
2023-01-17T00:31:14.508Z,0.47
2023-01-17T00:33:40.908Z,0.57
2023-01-17T00:36:08.298Z,0.55
2023-01-17T00:38:37.402Z,0.60
2023-01-17T00:41:09.813Z,0.80
2023-01-17T00:43:55.564Z,0.60
2023-01-17T00:46:40.819Z,0.60
2023-01-17T00:49:26.151Z,0.60
2023-01-17T00:52:11.483Z,0.45
2023-01-17T00:54:56.283Z,0.38
2023-01-17T00:57:41.640Z,0.75
2023-01-17T01:00:27.516Z,0.60
2023-01-17T01:03:12.263Z,0.60
2023-01-17T01:05:57.078Z,0.65
2023-01-17T01:08:44.922Z,0.47
2023-01-17T01:11:37.102Z,0.68
2023-01-17T01:14:25.022Z,0.50
2023-01-17T01:17:09.812Z,0.60
2023-01-17T01:19:54.540Z,0.75
2023-01-17T01:22:39.258Z,0.60
2023-01-17T01:25:24.704Z,0.40
2023-01-17T01:28:09.505Z,0.50
2023-01-17T01:30:54.275Z,0.68
2023-01-17T01:33:20.646Z,0.70
2023-01-17T01:35:52.055Z,0.77
2023-01-17T01:38:20.390Z,0.70
2023-01-17T01:40:52.169Z,0.70
2023-01-17T01:43:51.111Z,0.70
2023-01-17T01:46:38.539Z,0.75
2023-01-17T01:49:26.030Z,0.57
2023-01-17T01:51:58.336Z,0.60
2023-01-17T01:54:32.251Z,0.60
2023-01-17T01:57:02.649Z,0.52
2023-01-17T01:59:30.891Z,0.73
2023-01-17T02:02:00.399Z,0.50
2023-01-17T02:04:30.736Z,0.40
2023-01-17T02:07:08.157Z,0.57
2023-01-17T02:09:34.526Z,0.60
2023-01-17T02:12:02.260Z,0.47
2023-01-17T02:14:28.905Z,0.50
2023-01-17T02:17:13.896Z,0.52
2023-01-17T02:20:03.243Z,0.57
2023-01-17T02:23:22.737Z,0.47
2023-01-17T02:26:13.594Z,0.60
2023-01-17T02:28:45.859Z,0.55
2023-01-17T02:31:27.848Z,0.70
2023-01-17T02:34:28.460Z,0.30
2023-01-17T02:37:07.791Z,0.40
2023-01-17T02:39:42.478Z,0.60
2023-01-17T02:42:14.515Z,0.70
2023-01-17T02:44:42.353Z,0.40
2023-01-17T02:47:30.275Z,0.60
2023-01-17T02:50:03.375Z,0.50
2023-01-17T02:52:48.534Z,0.30
2023-01-17T02:55:41.047Z,0.30
2023-01-17T02:58:17.577Z,0.40
2023-01-17T03:03:22.944Z,0.30
2023-01-17T03:05:57.453Z,0.60
2023-01-17T03:08:24.554Z,0.55
2023-01-17T03:10:51.118Z,0.40
2023-01-17T03:13:17.702Z,0.57
2023-01-17T03:15:45.006Z,0.60
2023-01-17T03:18:14.734Z,0.50
2023-01-17T03:20:41.708Z,0.50
2023-01-17T03:23:08.182Z,0.50
2023-01-17T03:25:34.581Z,0.65
2023-01-17T03:28:01.003Z,0.60
2023-01-17T03:30:27.543Z,0.60
2023-01-17T03:32:53.944Z,0.70
2023-01-17T03:35:20.509Z,0.60
2023-01-17T03:37:46.925Z,0.65
2023-01-17T03:40:13.410Z,0.60
2023-01-17T03:42:39.889Z,0.70
2023-01-17T03:45:06.706Z,0.73
2023-01-17T03:47:35.183Z,0.70
2023-01-17T03:50:02.015Z,0.90
2023-01-17T03:52:28.456Z,1.00
2023-01-17T03:54:54.802Z,1.30
2023-01-17T03:57:23.525Z,1.20
2023-01-17T03:59:50.000Z,1.30
2023-01-17T04:02:16.478Z,1.10
2023-01-17T04:04:42.987Z,1.17
2023-01-17T04:07:09.341Z,1.15
2023-01-17T04:09:35.849Z,1.13
2023-01-17T04:12:02.703Z,1.40
2023-01-17T04:14:29.107Z,1.38
2023-01-17T04:16:56.156Z,1.70
2023-01-17T04:19:22.732Z,1.30
2023-01-17T04:21:49.149Z,1.60
2023-01-17T04:24:17.815Z,1.20
2023-01-17T04:26:44.539Z,1.30
2023-01-17T04:29:10.971Z,1.20
2023-01-17T04:31:37.483Z,1.30
2023-01-17T04:34:03.941Z,1.23
2023-01-17T04:36:30.315Z,1.30
2023-01-17T04:38:56.705Z,1.50
2023-01-17T04:41:23.120Z,1.30
2023-01-17T04:43:49.550Z,1.20
2023-01-17T04:46:16.030Z,1.30
2023-01-17T04:48:42.412Z,1.40
2023-01-17T04:51:08.781Z,1.10
2023-01-17T04:53:35.257Z,1.40
2023-01-17T04:56:02.102Z,1.48
2023-01-17T04:58:28.640Z,1.27
2023-01-17T05:00:55.176Z,1.90
2023-01-17T05:03:23.872Z,1.40
2023-01-17T05:05:50.286Z,1.38
2023-01-17T05:08:16.769Z,1.25
2023-01-17T05:10:46.088Z,1.45
2023-01-17T05:13:12.832Z,1.58
2023-01-17T05:15:39.331Z,1.75
2023-01-17T05:18:08.618Z,1.40
2023-01-17T05:20:36.533Z,1.60
2023-01-17T05:23:03.195Z,2.03
2023-01-17T05:25:32.178Z,1.83
2023-01-17T05:28:02.231Z,1.52
2023-01-17T05:30:30.680Z,1.65
2023-01-17T05:32:58.613Z,1.75
2023-01-17T05:35:28.486Z,1.80
2023-01-17T05:37:55.914Z,1.95
2023-01-17T05:40:26.376Z,2.05
2023-01-17T05:42:55.081Z,1.90
2023-01-17T05:45:26.879Z,1.98
2023-01-17T05:47:55.133Z,1.95
2023-01-17T05:50:28.208Z,1.92
2023-01-17T05:52:57.385Z,2.20
2023-01-17T05:55:25.040Z,2.33
2023-01-17T05:57:51.872Z,2.28
2023-01-17T06:00:19.039Z,2.25
2023-01-17T06:02:46.194Z,1.70
2023-01-17T06:05:13.447Z,1.67
2023-01-17T06:07:40.138Z,2.00
2023-01-17T06:10:07.114Z,2.10
2023-01-17T06:12:33.574Z,1.65
2023-01-17T06:14:59.978Z,2.50
2023-01-17T06:17:26.404Z,2.00
2023-01-17T06:19:52.824Z,2.25
2023-01-17T06:22:19.195Z,2.22
2023-01-17T06:24:45.850Z,2.35
2023-01-17T06:27:12.501Z,2.10
2023-01-17T06:29:38.859Z,2.55
2023-01-17T06:32:05.283Z,2.60
2023-01-17T06:34:31.848Z,2.85
2023-01-17T06:36:58.488Z,2.40
2023-01-17T06:39:24.917Z,2.55
2023-01-17T06:41:51.347Z,2.60
2023-01-17T06:44:17.839Z,2.70
2023-01-17T06:46:45.032Z,2.70
2023-01-17T06:49:11.554Z,2.35
2023-01-17T06:51:38.010Z,2.35
2023-01-17T06:54:04.569Z,2.58
2023-01-17T06:56:32.117Z,2.70
2023-01-17T06:58:58.477Z,2.60
2023-01-17T07:01:25.271Z,1.88
2023-01-17T07:03:52.507Z,2.40
2023-01-17T07:06:18.990Z,2.33
2023-01-17T07:08:45.580Z,2.83
2023-01-17T07:11:12.137Z,2.35
2023-01-17T07:13:38.641Z,2.30
2023-01-17T07:16:06.743Z,2.83
2023-01-17T07:18:34.509Z,2.53
2023-01-17T07:21:01.311Z,2.17
2023-01-17T07:23:27.683Z,2.42
2023-01-17T07:25:59.157Z,2.47
2023-01-17T07:28:27.511Z,2.67
2023-01-17T07:30:54.594Z,2.50
2023-01-17T07:33:21.493Z,2.50
2023-01-17T07:35:48.141Z,2.40
2023-01-17T07:38:16.883Z,1.85
2023-01-17T07:40:43.632Z,2.50
2023-01-17T07:43:16.652Z,2.38
2023-01-17T07:45:50.804Z,2.17
2023-01-17T07:48:18.932Z,2.25
2023-01-17T07:50:45.380Z,2.42
2023-01-17T07:53:11.747Z,2.00
2023-01-17T07:55:38.104Z,2.20
2023-01-17T07:58:04.451Z,2.60
2023-01-17T08:00:30.915Z,2.20
2023-01-17T08:02:58.650Z,2.03
2023-01-17T08:05:25.618Z,2.45
2023-01-17T08:07:52.360Z,2.40
2023-01-17T08:10:19.068Z,2.35
2023-01-17T08:12:49.859Z,2.55
2023-01-17T08:15:17.960Z,2.30
2023-01-17T08:17:48.749Z,2.60
2023-01-17T08:20:16.324Z,2.28
2023-01-17T08:22:42.872Z,2.10
2023-01-17T08:25:09.968Z,2.30
2023-01-17T08:27:36.470Z,2.40
2023-01-17T08:30:03.786Z,2.13
2023-01-17T08:32:30.183Z,2.03
2023-01-17T08:34:57.130Z,2.30
2023-01-17T08:37:23.842Z,2.35
2023-01-17T08:39:51.106Z,2.13
2023-01-17T08:42:17.876Z,2.10
2023-01-17T08:44:44.330Z,2.38
2023-01-17T08:47:10.747Z,2.33
2023-01-17T08:49:37.132Z,2.40
2023-01-17T08:52:05.140Z,2.17
2023-01-17T08:54:31.744Z,1.98
2023-01-17T08:56:58.178Z,2.47
2023-01-17T08:59:24.704Z,2.20
2023-01-17T09:01:52.412Z,2.42
2023-01-17T09:04:19.217Z,2.38
2023-01-17T09:06:48.077Z,2.80
2023-01-17T09:09:16.656Z,2.38
2023-01-17T09:11:43.174Z,2.13
2023-01-17T09:14:11.877Z,2.05
2023-01-17T09:16:38.303Z,2.40
2023-01-17T09:19:04.723Z,1.70
2023-01-17T09:21:31.112Z,2.47
2023-01-17T09:23:57.627Z,2.40
2023-01-17T09:26:26.894Z,2.47
2023-01-17T09:28:54.859Z,2.33
2023-01-17T09:31:22.948Z,2.17
2023-01-17T09:33:51.049Z,3.13
2023-01-17T09:36:17.879Z,2.67
2023-01-17T09:38:44.657Z,2.40
2023-01-17T09:41:42.087Z,2.42
2023-01-17T09:44:32.085Z,3.17
2023-01-17T09:47:06.615Z,2.20
2023-01-17T09:49:38.946Z,2.38
2023-01-17T09:52:08.531Z,3.40
2023-01-17T09:54:40.765Z,2.20
2023-01-17T09:57:20.025Z,2.22
2023-01-17T10:00:04.076Z,2.10
2023-01-17T10:03:17.643Z,2.50
2023-01-17T10:06:28.247Z,2.80
2023-01-17T10:09:29.527Z,2.42
2023-01-17T10:12:04.633Z,2.47
2023-01-17T10:14:33.681Z,2.15
2023-01-17T10:17:13.660Z,2.10
2023-01-17T10:20:02.260Z,2.10
2023-01-17T10:22:56.298Z,2.13
2023-01-17T10:25:42.949Z,2.08
2023-01-17T10:28:24.003Z,2.63
2023-01-17T10:30:53.674Z,2.17
2023-01-17T10:33:26.158Z,2.25
2023-01-17T10:36:03.733Z,1.92
2023-01-17T10:38:36.029Z,2.00
2023-01-17T10:41:07.161Z,2.10
2023-01-17T10:43:56.297Z,2.60
2023-01-17T10:46:29.975Z,2.45
2023-01-17T10:48:57.240Z,2.20
2023-01-17T10:52:00.190Z,2.38
2023-01-17T10:54:40.218Z,2.13
2023-01-17T10:57:15.761Z,1.85
2023-01-17T10:59:44.059Z,2.13
2023-01-17T11:02:33.302Z,2.20
2023-01-17T11:05:04.227Z,2.30
2023-01-17T11:07:31.112Z,2.20
2023-01-17T11:09:58.730Z,2.30
2023-01-17T11:12:48.657Z,2.10
2023-01-17T11:15:25.733Z,2.00
2023-01-17T11:18:03.696Z,2.00
2023-01-17T11:20:35.216Z,2.30
2023-01-17T11:23:12.715Z,2.30
2023-01-17T11:25:39.253Z,1.85
2023-01-17T11:28:19.792Z,2.60
2023-01-17T11:31:16.573Z,1.90
2023-01-17T11:33:49.138Z,1.60
2023-01-17T11:36:30.069Z,2.03
2023-01-17T11:39:21.771Z,1.92
2023-01-17T11:41:48.437Z,2.22
2023-01-17T11:44:27.273Z,1.88
2023-01-17T11:47:09.937Z,2.03
2023-01-17T11:49:36.562Z,2.00
2023-01-17T11:52:10.333Z,2.33
2023-01-17T11:54:40.164Z,2.10
2023-01-17T11:57:16.592Z,2.53
2023-01-17T11:59:43.836Z,2.25
2023-01-17T12:02:36.363Z,2.40
2023-01-17T12:05:15.253Z,1.90
2023-01-17T12:07:44.729Z,2.33
2023-01-17T12:10:25.439Z,2.00
2023-01-17T12:13:54.900Z,2.00
2023-01-17T12:16:47.138Z,2.33
2023-01-17T12:19:34.496Z,2.00
2023-01-17T12:22:25.477Z,2.15
2023-01-17T12:25:03.781Z,2.22
2023-01-17T12:27:45.985Z,2.13
2023-01-17T12:30:40.480Z,2.08
2023-01-17T12:33:12.819Z,2.13
2023-01-17T12:35:53.447Z,2.13
2023-01-17T12:38:35.626Z,2.15
2023-01-17T12:41:02.025Z,2.22
2023-01-17T12:43:35.263Z,1.92
2023-01-17T12:46:07.480Z,2.22
2023-01-17T12:48:39.448Z,2.30
2023-01-17T12:51:13.335Z,2.20
2023-01-17T12:53:54.976Z,2.15
2023-01-17T12:56:39.228Z,2.28
2023-01-17T12:59:17.787Z,1.92
2023-01-17T13:01:57.328Z,1.70
2023-01-17T13:04:29.567Z,2.35
2023-01-17T13:07:10.283Z,1.73
2023-01-17T13:09:45.553Z,1.80
2023-01-17T13:12:19.235Z,1.67
2023-01-17T13:14:46.750Z,1.98
2023-01-17T13:17:46.204Z,1.92
2023-01-17T13:20:45.818Z,1.77
2023-01-17T13:23:31.463Z,1.58
2023-01-17T13:26:00.030Z,1.50
2023-01-17T13:28:44.583Z,1.83
2023-01-17T13:31:32.094Z,1.65
2023-01-17T13:34:16.488Z,1.67
2023-01-17T13:36:57.984Z,1.95
2023-01-17T13:39:52.893Z,1.83
2023-01-17T13:42:28.916Z,1.80
2023-01-17T13:44:56.798Z,1.60
2023-01-17T13:47:26.052Z,1.83
2023-01-17T13:49:59.308Z,1.70
2023-01-17T13:52:25.620Z,1.70
2023-01-17T13:54:55.184Z,2.03
2023-01-17T13:57:29.881Z,1.83
2023-01-17T13:59:58.870Z,1.52
2023-01-17T14:02:39.217Z,1.80
2023-01-17T14:05:11.831Z,1.73
2023-01-17T14:08:06.040Z,1.65
2023-01-17T14:10:48.518Z,1.35
2023-01-17T14:13:36.075Z,1.70
2023-01-17T14:16:09.090Z,1.70
2023-01-17T14:18:40.940Z,1.80
2023-01-17T14:21:31.577Z,1.50
2023-01-17T14:24:15.823Z,1.50
2023-01-17T14:26:46.413Z,1.63
2023-01-17T14:29:50.773Z,1.55
2023-01-17T14:32:38.502Z,1.60
2023-01-17T14:35:06.117Z,1.67
2023-01-17T14:37:32.579Z,1.20
2023-01-17T14:40:01.019Z,1.30
2023-01-17T14:42:30.402Z,1.75
2023-01-17T14:45:09.221Z,1.40
2023-01-17T14:47:39.600Z,1.27
2023-01-17T14:50:21.534Z,1.33
2023-01-17T14:52:48.977Z,1.30
2023-01-17T14:55:18.731Z,1.30
2023-01-17T14:57:57.997Z,1.60
2023-01-17T15:00:25.438Z,1.30
2023-01-17T15:02:53.595Z,1.35
2023-01-17T15:05:21.953Z,1.40
2023-01-17T15:07:52.957Z,1.55
2023-01-17T15:10:23.765Z,1.42
2023-01-17T15:12:52.235Z,1.20
2023-01-17T15:15:38.283Z,1.67
2023-01-17T15:18:13.864Z,1.30
2023-01-17T15:21:01.448Z,1.30
2023-01-17T15:23:34.404Z,1.48
2023-01-17T15:26:03.099Z,1.33
2023-01-17T15:28:30.866Z,1.65
2023-01-17T15:31:08.751Z,1.80
2023-01-17T15:33:39.292Z,1.23
2023-01-17T15:36:37.883Z,1.30
2023-01-17T15:39:21.877Z,1.33
2023-01-17T15:41:52.079Z,1.55
2023-01-17T15:44:42.606Z,1.60
2023-01-17T15:47:39.053Z,1.60
2023-01-17T15:50:20.682Z,1.73
2023-01-17T15:52:49.188Z,1.55
2023-01-17T15:55:31.611Z,1.50
2023-01-17T15:57:58.282Z,1.55
2023-01-17T16:00:39.268Z,1.67
2023-01-17T16:03:29.126Z,1.65
2023-01-17T16:05:57.837Z,1.27
2023-01-17T16:08:30.722Z,1.70
2023-01-17T16:11:02.138Z,1.50
2023-01-17T16:13:31.131Z,1.65
2023-01-17T16:16:19.464Z,1.83
2023-01-17T16:18:47.297Z,2.20
2023-01-17T16:21:28.862Z,1.40
2023-01-17T16:23:56.340Z,1.58
2023-01-17T16:26:23.900Z,1.90
2023-01-17T16:28:50.784Z,1.85
2023-01-17T16:31:18.289Z,1.83
2023-01-17T16:33:48.326Z,1.95
2023-01-17T16:36:16.429Z,1.65
2023-01-17T16:38:44.536Z,1.92
2023-01-17T16:41:11.413Z,1.60
2023-01-17T16:43:37.848Z,1.60
2023-01-17T16:46:05.124Z,1.88
2023-01-17T16:48:32.123Z,1.95
2023-01-17T16:50:59.430Z,1.30
2023-01-17T16:53:28.165Z,1.75
2023-01-17T16:55:58.020Z,1.60
2023-01-17T16:58:24.655Z,2.40
2023-01-17T17:00:51.166Z,2.22
2023-01-17T17:03:22.586Z,2.33
2023-01-17T17:06:00.218Z,2.10
2023-01-17T17:08:28.964Z,2.25
2023-01-17T17:11:05.934Z,2.28
2023-01-17T17:13:37.199Z,2.22
2023-01-17T17:16:14.936Z,2.17
2023-01-17T17:18:42.153Z,2.38
2023-01-17T17:21:08.964Z,2.00
2023-01-17T17:23:35.680Z,2.67
2023-01-17T17:26:02.193Z,2.30
2023-01-17T17:28:28.576Z,2.50
2023-01-17T17:31:02.763Z,2.25
2023-01-17T17:33:29.278Z,2.67
2023-01-17T17:35:55.599Z,2.83
2023-01-17T17:38:22.058Z,2.33
2023-01-17T17:40:48.507Z,2.30
2023-01-17T17:43:15.083Z,2.25
2023-01-17T17:45:41.435Z,2.40
2023-01-17T17:48:07.940Z,2.72
2023-01-17T17:50:34.480Z,2.90
2023-01-17T17:53:01.155Z,3.35
2023-01-17T17:55:28.507Z,3.13
2023-01-17T17:57:58.098Z,2.97
2023-01-17T18:00:24.571Z,3.50
2023-01-17T18:02:53.595Z,3.60
2023-01-17T18:05:19.933Z,5.22
2023-01-17T18:07:46.272Z,5.97
2023-01-17T18:10:12.678Z,6.32
2023-01-17T18:12:39.213Z,5.90
2023-01-17T18:15:06.084Z,5.72
2023-01-17T18:17:32.505Z,5.35
2023-01-17T18:19:59.598Z,5.00
2023-01-17T18:22:25.987Z,5.00
2023-01-17T18:24:52.570Z,5.43
2023-01-17T18:27:18.966Z,4.75
2023-01-17T18:29:45.335Z,5.47
2023-01-17T18:32:13.047Z,5.57
2023-01-17T18:34:41.471Z,5.50
2023-01-17T18:37:08.145Z,5.43
2023-01-17T18:39:34.542Z,4.90
2023-01-17T18:42:00.934Z,4.43
2023-01-17T18:44:27.526Z,5.07
2023-01-17T18:46:54.737Z,4.53
2023-01-17T18:49:21.633Z,4.68
2023-01-17T18:51:51.916Z,3.75
2023-01-17T18:54:19.984Z,4.63
2023-01-17T18:56:46.743Z,4.35
2023-01-17T18:59:14.661Z,4.57
2023-01-17T19:01:44.696Z,3.58
2023-01-17T19:04:13.332Z,4.13
2023-01-17T19:06:42.385Z,4.28
2023-01-17T19:09:12.437Z,4.10
2023-01-17T19:11:39.326Z,4.40
2023-01-17T19:14:06.977Z,4.57
2023-01-17T19:16:39.149Z,4.20
2023-01-17T19:19:08.926Z,4.13
2023-01-17T19:21:35.511Z,4.28
2023-01-17T19:24:02.072Z,4.18
2023-01-17T19:26:29.819Z,4.10
2023-01-17T19:28:58.723Z,3.65
2023-01-17T19:31:28.360Z,4.20
2023-01-17T19:34:00.016Z,3.85
2023-01-17T19:36:33.670Z,4.05
2023-01-17T19:39:05.627Z,4.57
2023-01-17T19:41:34.718Z,4.72
2023-01-17T19:44:05.320Z,5.00
2023-01-17T19:46:32.400Z,4.10
2023-01-17T19:48:59.602Z,5.03
2023-01-17T19:51:26.947Z,5.05
2023-01-17T19:53:54.254Z,4.60
2023-01-17T19:56:28.265Z,5.93
2023-01-17T19:59:01.948Z,4.35
2023-01-17T20:01:31.485Z,4.90
2023-01-17T20:03:59.434Z,4.85
2023-01-17T20:06:32.278Z,4.82
2023-01-17T20:08:58.804Z,5.13
2023-01-17T20:11:26.542Z,4.10
2023-01-17T20:13:55.274Z,4.97
2023-01-17T20:16:22.874Z,4.47
2023-01-17T20:18:49.562Z,4.28
2023-01-17T20:21:19.270Z,4.82
2023-01-17T20:23:47.304Z,4.43
2023-01-17T20:26:16.293Z,5.13
2023-01-17T20:28:44.336Z,4.90
2023-01-17T20:31:16.078Z,4.88
2023-01-17T20:33:44.743Z,4.22
2023-01-17T20:36:16.568Z,4.70
2023-01-17T20:38:44.061Z,4.35
2023-01-17T20:41:24.306Z,4.65
2023-01-17T20:43:54.343Z,4.63
2023-01-17T20:46:22.701Z,4.43
2023-01-17T20:48:54.506Z,4.78
2023-01-17T20:51:22.734Z,4.90
2023-01-17T20:53:55.878Z,4.63
2023-01-17T20:56:22.716Z,4.93
2023-01-17T20:58:51.746Z,4.82
2023-01-17T21:01:19.069Z,4.43
2023-01-17T21:03:46.771Z,4.55
2023-01-17T21:06:15.310Z,4.47
2023-01-17T21:08:43.912Z,5.70
2023-01-17T21:11:13.158Z,4.55
2023-01-17T21:13:40.238Z,4.32
2023-01-17T21:16:09.218Z,4.30
2023-01-17T21:18:36.240Z,4.75
2023-01-17T21:21:04.082Z,4.90
2023-01-17T21:23:30.498Z,4.63
2023-01-17T21:25:57.970Z,4.55
2023-01-17T21:28:27.513Z,5.05
2023-01-17T21:30:54.579Z,5.03
2023-01-17T21:33:22.802Z,4.85
2023-01-17T21:35:49.228Z,5.15
2023-01-17T21:38:16.381Z,4.72
2023-01-17T21:40:43.986Z,5.03
2023-01-17T21:43:11.335Z,4.45
2023-01-17T21:45:38.824Z,4.32
2023-01-17T21:48:06.699Z,4.18
2023-01-17T21:50:34.012Z,4.28
2023-01-17T21:53:00.667Z,4.53
2023-01-17T21:55:45.784Z,3.90
2023-01-17T21:58:36.248Z,4.07
2023-01-17T22:01:15.952Z,4.00
2023-01-17T22:03:42.964Z,4.05
2023-01-17T22:06:10.237Z,4.10
2023-01-17T22:08:37.685Z,3.85
2023-01-17T22:11:07.364Z,4.40
2023-01-17T22:13:35.084Z,4.40
2023-01-17T22:16:03.589Z,4.53
2023-01-17T22:18:30.908Z,3.88
2023-01-17T22:20:57.697Z,3.83
2023-01-17T22:23:24.126Z,4.07
2023-01-17T22:25:50.461Z,4.43
2023-01-17T22:28:16.921Z,4.22
2023-01-17T22:30:43.256Z,4.00
2023-01-17T22:33:09.630Z,4.25
2023-01-17T22:35:35.995Z,3.70
2023-01-17T22:38:02.365Z,4.00
2023-01-17T22:40:28.757Z,4.00
2023-01-17T22:42:55.646Z,4.25
2023-01-17T22:45:22.172Z,4.25
2023-01-17T22:47:48.564Z,3.80
2023-01-17T22:50:15.077Z,3.90
2023-01-17T22:52:41.875Z,3.78
2023-01-17T22:55:08.745Z,3.97
2023-01-17T22:57:35.143Z,3.42
2023-01-17T23:00:04.655Z,3.60
2023-01-17T23:02:31.043Z,3.00
2023-01-17T23:04:57.482Z,3.72
2023-01-17T23:07:26.605Z,3.70
2023-01-17T23:09:53.378Z,3.78
2023-01-17T23:12:19.769Z,4.18
2023-01-17T23:15:04.735Z,4.13
2023-01-17T23:17:49.804Z,4.15
2023-01-17T23:20:16.386Z,3.88
2023-01-17T23:22:42.782Z,3.75
2023-01-17T23:25:12.232Z,3.80
2023-01-17T23:28:00.312Z,3.80
2023-01-17T23:30:34.760Z,3.60
2023-01-17T23:33:09.389Z,3.78
2023-01-17T23:35:41.719Z,4.00
2023-01-17T23:38:26.431Z,3.97
2023-01-17T23:41:27.286Z,3.97
2023-01-17T23:43:56.001Z,4.60
2023-01-17T23:46:23.907Z,4.07
2023-01-17T23:48:50.353Z,4.20
2023-01-17T23:51:16.809Z,4.35
2023-01-17T23:53:43.754Z,3.63
2023-01-17T23:56:16.250Z,3.90
2023-01-17T23:58:42.694Z,3.90
